25°C Temp
9°C Dewpoint
% Humidity
Temperature
34 KM/H
21 MPH
18 KTS
150°
South South
East

Wind Speed
Clear
Conditions
Pressure 998.92 (hPa) - 29.5 (in)
Visibility 6.2 (mi) - 10.0 (km)

Current Conditions
EHDL
Location 30(km)
Metar :EHDL 241125Z AUTO 15018G30KT 090V220 9999 NCD 25/09 Q0999 BLU
Wed 24th April 13:25 pm

Airport
  Metar Aviation API Data Provided by https://www.checkwx.com/ PHP scripts by weather34.com ©2019